createdAt,value
2023-03-24T00:02:16.418Z,99121.42
2023-03-24T00:04:47.534Z,99117.48
2023-03-24T00:07:25.167Z,99115.09
2023-03-24T00:09:53.987Z,99112.38
2023-03-24T00:12:22.146Z,99114.98
2023-03-24T00:14:54.717Z,99115.00
2023-03-24T00:17:25.526Z,99112.21
2023-03-24T00:19:56.085Z,99110.87
2023-03-24T00:22:28.577Z,99107.31
2023-03-24T00:24:56.973Z,99108.72
2023-03-24T00:27:25.191Z,99101.47
2023-03-24T00:29:54.800Z,99100.04
2023-03-24T00:32:22.940Z,99102.27
2023-03-24T00:34:52.608Z,99102.79
2023-03-24T00:37:21.088Z,99103.05
2023-03-24T00:39:50.278Z,99098.51
2023-03-24T00:42:18.946Z,99099.52
2023-03-24T00:44:47.877Z,99096.61
2023-03-24T00:47:17.968Z,99094.08
2023-03-24T00:49:46.205Z,99093.83
2023-03-24T00:52:18.180Z,99087.95
2023-03-24T00:54:48.651Z,99088.25
2023-03-24T00:57:23.718Z,99087.85
2023-03-24T00:59:52.811Z,99087.38
2023-03-24T01:02:24.924Z,99084.85
2023-03-24T01:05:00.032Z,99085.75
2023-03-24T01:07:30.262Z,99083.02
2023-03-24T01:09:59.580Z,99079.92
2023-03-24T01:12:34.192Z,99078.14
2023-03-24T01:15:06.584Z,99078.36
2023-03-24T01:17:35.829Z,99076.90
2023-03-24T01:20:11.924Z,99077.77
2023-03-24T01:22:40.995Z,99075.70
2023-03-24T01:25:18.752Z,99077.17
2023-03-24T01:27:47.740Z,99077.71
2023-03-24T01:30:17.549Z,99076.63
2023-03-24T01:32:47.841Z,99080.52
2023-03-24T01:35:18.406Z,99075.13
2023-03-24T01:37:47.123Z,99078.67
2023-03-24T01:40:19.101Z,99082.66
2023-03-24T01:42:47.597Z,99086.80
2023-03-24T01:45:52.004Z,99089.90
2023-03-24T01:48:44.961Z,99090.93
2023-03-24T01:51:28.356Z,99092.13
2023-03-24T01:54:02.767Z,99098.06
2023-03-24T01:56:34.334Z,99093.96
2023-03-24T01:59:06.946Z,99093.20
2023-03-24T02:01:44.295Z,99091.73
2023-03-24T02:04:31.839Z,99088.36
2023-03-24T02:07:10.700Z,99089.70
2023-03-24T02:09:38.900Z,99091.14
2023-03-24T02:12:07.426Z,99094.59
2023-03-24T02:14:39.903Z,99092.08
2023-03-24T02:17:25.439Z,99089.95
2023-03-24T02:20:25.302Z,99087.10
2023-03-24T02:23:20.453Z,99092.09
2023-03-24T02:26:06.841Z,99096.95
2023-03-24T02:28:59.233Z,99092.69
2023-03-24T02:31:36.657Z,99088.71
2023-03-24T02:34:13.144Z,99089.33
2023-03-24T02:36:44.569Z,99094.11
2023-03-24T02:39:16.475Z,99093.89
2023-03-24T02:42:06.271Z,99096.39
2023-03-24T02:44:42.505Z,99098.67
2023-03-24T02:47:39.571Z,99106.04
2023-03-24T02:50:14.030Z,99100.86
2023-03-24T02:52:53.245Z,99102.83
2023-03-24T02:55:31.664Z,99101.70
2023-03-24T02:58:14.190Z,99100.49
2023-03-24T03:01:06.510Z,99101.87
2023-03-24T03:03:53.590Z,99102.37
2023-03-24T03:06:32.225Z,99106.33
2023-03-24T03:09:04.098Z,99106.04
2023-03-24T03:11:32.484Z,99104.41
2023-03-24T03:14:21.227Z,99108.08
2023-03-24T03:16:54.851Z,99109.48
2023-03-24T03:19:30.704Z,99116.89
2023-03-24T03:21:59.184Z,99122.88
2023-03-24T03:24:31.126Z,99125.35
2023-03-24T03:27:22.877Z,99119.89
2023-03-24T03:29:54.555Z,99116.48
2023-03-24T03:32:28.500Z,99118.45
2023-03-24T03:35:07.456Z,99115.02
2023-03-24T03:37:47.338Z,99118.95
2023-03-24T03:40:22.460Z,99124.35
2023-03-24T03:42:54.516Z,99129.54
2023-03-24T03:45:31.059Z,99132.32
2023-03-24T03:48:00.090Z,99140.10
2023-03-24T03:50:28.628Z,99141.91
2023-03-24T03:52:58.301Z,99139.42
2023-03-24T03:55:27.423Z,99137.23
2023-03-24T03:57:56.881Z,99137.60
2023-03-24T04:00:51.553Z,99140.77
2023-03-24T04:03:44.444Z,99142.81
2023-03-24T04:06:40.984Z,99145.23
2023-03-24T04:09:24.760Z,99145.27
2023-03-24T04:12:08.747Z,99150.73
2023-03-24T04:15:25.435Z,99156.35
2023-03-24T04:18:44.810Z,99157.55
2023-03-24T04:21:42.401Z,99153.65
2023-03-24T04:24:51.732Z,99155.71
2023-03-24T04:27:38.740Z,99160.79
2023-03-24T04:30:23.153Z,99162.76
2023-03-24T04:33:07.195Z,99166.52
2023-03-24T04:35:44.065Z,99171.39
2023-03-24T04:38:38.453Z,99170.69
2023-03-24T04:41:18.011Z,99170.95
2023-03-24T04:43:51.365Z,99174.01
2023-03-24T04:46:19.602Z,99177.98
2023-03-24T04:49:06.978Z,99178.98
2023-03-24T04:51:37.858Z,99181.13
2023-03-24T04:54:14.561Z,99183.77
2023-03-24T04:56:51.476Z,99186.32
2023-03-24T04:59:26.055Z,99189.19
2023-03-24T05:01:54.632Z,99182.80
2023-03-24T05:04:58.203Z,99180.31
2023-03-24T05:07:33.985Z,99173.59
2023-03-24T05:10:04.260Z,99173.33
2023-03-24T05:12:42.521Z,99174.04
2023-03-24T05:15:31.721Z,99175.45
2023-03-24T05:18:10.359Z,99180.63
2023-03-24T05:20:39.112Z,99177.76
2023-03-24T05:23:15.007Z,99174.81
2023-03-24T05:25:46.773Z,99180.92
2023-03-24T05:28:17.333Z,99182.23
2023-03-24T05:30:46.591Z,99181.27
2023-03-24T05:33:38.152Z,99178.73
2023-03-24T05:36:07.789Z,99180.48
2023-03-24T05:38:40.763Z,99181.55
2023-03-24T05:41:09.586Z,99186.26
2023-03-24T05:43:40.971Z,99184.31
2023-03-24T05:46:13.526Z,99182.59
2023-03-24T05:48:42.025Z,99184.04
2023-03-24T05:51:24.070Z,99187.33
2023-03-24T05:53:59.947Z,99186.89
2023-03-24T05:56:41.092Z,99185.05
2023-03-24T05:59:32.764Z,99188.39
2023-03-24T06:02:09.952Z,99192.45
2023-03-24T06:05:01.762Z,99187.70
2023-03-24T06:07:32.268Z,99189.05
2023-03-24T06:10:05.065Z,99188.44
2023-03-24T06:12:41.498Z,99184.92
2023-03-24T06:15:10.533Z,99183.86
2023-03-24T06:17:42.676Z,99193.89
2023-03-24T06:20:18.684Z,99197.31
2023-03-24T06:23:03.529Z,99192.48
2023-03-24T06:25:39.635Z,99189.77
2023-03-24T06:28:34.713Z,99192.51
2023-03-24T06:31:06.783Z,99189.66
2023-03-24T06:33:38.772Z,99193.12
2023-03-24T06:36:07.536Z,99192.73
2023-03-24T06:38:40.790Z,99192.13
2023-03-24T06:41:09.643Z,99191.50
2023-03-24T06:43:38.613Z,99195.64
2023-03-24T06:46:07.286Z,99187.57
2023-03-24T06:48:36.861Z,99192.78
2023-03-24T06:51:12.210Z,99197.04
2023-03-24T06:53:41.454Z,99194.42
2023-03-24T06:56:18.540Z,99203.10
2023-03-24T06:58:51.752Z,99202.35
2023-03-24T07:01:27.438Z,99201.32
2023-03-24T07:04:06.372Z,99197.14
2023-03-24T07:07:19.575Z,99197.20
2023-03-24T07:09:55.174Z,99197.87
2023-03-24T07:12:23.357Z,99199.92
2023-03-24T07:14:52.265Z,99201.02
2023-03-24T07:17:21.050Z,99201.65
2023-03-24T07:20:09.137Z,99204.53
2023-03-24T07:22:48.120Z,99203.45
2023-03-24T07:25:25.943Z,99199.92
2023-03-24T07:28:32.479Z,99199.13
2023-03-24T07:31:05.205Z,99202.52
2023-03-24T07:33:34.143Z,99203.02
2023-03-24T07:36:02.333Z,99198.95
2023-03-24T07:38:31.206Z,99203.51
2023-03-24T07:41:03.954Z,99207.23
2023-03-24T07:43:33.160Z,99200.56
2023-03-24T07:46:33.635Z,99196.55
2023-03-24T07:49:11.817Z,99196.54
2023-03-24T07:51:48.584Z,99201.11
2023-03-24T07:54:46.808Z,99200.35
2023-03-24T07:57:32.231Z,99196.21
2023-03-24T08:00:00.984Z,99195.33
2023-03-24T08:02:53.713Z,99191.23
2023-03-24T08:05:47.351Z,99189.73
2023-03-24T08:08:31.781Z,99189.30
2023-03-24T08:11:00.148Z,99194.05
2023-03-24T08:13:28.441Z,99196.61
2023-03-24T08:15:56.542Z,99198.98
2023-03-24T08:18:35.137Z,99195.13
2023-03-24T08:21:06.262Z,99191.17
2023-03-24T08:23:37.079Z,99187.62
2023-03-24T08:26:05.359Z,99188.84
2023-03-24T08:28:34.614Z,99191.80
2023-03-24T08:31:03.116Z,99191.65
2023-03-24T08:33:35.073Z,99188.69
2023-03-24T08:36:03.954Z,99188.90
2023-03-24T08:38:32.555Z,99188.17
2023-03-24T08:41:06.986Z,99189.27
2023-03-24T08:43:36.858Z,99187.25
2023-03-24T08:46:09.689Z,99188.60
2023-03-24T08:48:41.248Z,99182.89
2023-03-24T08:51:11.982Z,99182.99
2023-03-24T08:53:41.528Z,99180.02
2023-03-24T08:56:09.843Z,99173.77
2023-03-24T08:58:39.336Z,99174.69
2023-03-24T09:01:07.667Z,99171.13
2023-03-24T09:03:39.739Z,99174.50
2023-03-24T09:06:08.277Z,99172.55
2023-03-24T09:08:36.905Z,99170.23
2023-03-24T09:11:06.177Z,99169.06
2023-03-24T09:13:34.428Z,99171.52
2023-03-24T09:16:03.347Z,99162.48
2023-03-24T09:18:31.937Z,99165.86
2023-03-24T09:21:01.548Z,99158.10
2023-03-24T09:23:31.613Z,99158.47
2023-03-24T09:26:00.059Z,99152.34
2023-03-24T09:28:28.854Z,99150.14
2023-03-24T09:31:01.036Z,99146.55
2023-03-24T09:33:30.839Z,99148.48
2023-03-24T09:36:00.773Z,99149.30
2023-03-24T09:38:33.724Z,99150.27
2023-03-24T09:41:04.415Z,99147.57
2023-03-24T09:43:41.196Z,99140.45
2023-03-24T09:46:21.164Z,99138.33
2023-03-24T09:48:53.070Z,99135.73
2023-03-24T09:51:25.463Z,99134.71
2023-03-24T09:54:31.543Z,99129.75
2023-03-24T09:56:59.993Z,99132.87
2023-03-24T09:59:29.536Z,99127.78
2023-03-24T10:01:59.088Z,99128.91
2023-03-24T10:04:28.045Z,99124.39
2023-03-24T10:07:25.636Z,99125.23
2023-03-24T10:09:56.726Z,99120.20
2023-03-24T10:12:37.675Z,99121.89
2023-03-24T10:15:37.327Z,99119.16
2023-03-24T10:18:12.955Z,99116.05
2023-03-24T10:21:16.034Z,99116.50
2023-03-24T10:23:45.139Z,99116.23
2023-03-24T10:26:31.460Z,99113.52
2023-03-24T10:29:06.590Z,99112.23
2023-03-24T10:31:35.256Z,99110.05
2023-03-24T10:34:04.912Z,99108.11
2023-03-24T10:36:33.282Z,99108.08
2023-03-24T10:39:12.930Z,99107.54
2023-03-24T10:41:46.765Z,99095.41
2023-03-24T10:44:18.226Z,99094.39
2023-03-24T10:46:48.691Z,99088.88
2023-03-24T10:49:19.824Z,99089.34
2023-03-24T10:51:54.157Z,99082.48
2023-03-24T10:54:25.589Z,99078.91
2023-03-24T10:56:59.194Z,99076.73
2023-03-24T10:59:29.137Z,99077.92
2023-03-24T11:02:10.058Z,99075.86
2023-03-24T11:17:13.017Z,99067.81
2023-03-24T11:19:53.489Z,99066.33
2023-03-24T11:22:22.348Z,99065.02
2023-03-24T11:24:52.661Z,99063.05
2023-03-24T11:27:21.625Z,99056.41
2023-03-24T11:29:54.783Z,99059.69
2023-03-24T11:32:28.132Z,99046.94
2023-03-24T11:35:12.070Z,99046.32
2023-03-24T11:37:41.511Z,99043.29
2023-03-24T11:40:12.810Z,99033.23
2023-03-24T11:42:46.296Z,99031.09
2023-03-24T11:45:27.967Z,99024.23
2023-03-24T11:47:58.913Z,99021.05
2023-03-24T11:50:32.021Z,99025.27
2023-03-24T11:53:08.082Z,99023.48
2023-03-24T11:55:48.457Z,99026.13
2023-03-24T11:58:37.183Z,99023.77
2023-03-24T12:01:21.524Z,99025.73
2023-03-24T12:03:59.692Z,99021.48
2023-03-24T12:06:42.232Z,99020.39
2023-03-24T12:09:19.915Z,99021.20
2023-03-24T12:12:00.291Z,99018.87
2023-03-24T12:15:07.787Z,99014.20
2023-03-24T12:17:42.516Z,99008.98
2023-03-24T12:20:26.354Z,99006.06
2023-03-24T12:23:11.011Z,99006.51
2023-03-24T12:26:17.473Z,99006.38
2023-03-24T12:29:05.957Z,98999.23
2023-03-24T12:32:01.506Z,98997.13
2023-03-24T12:34:52.793Z,99002.11
2023-03-24T12:37:25.975Z,98998.42
2023-03-24T12:40:10.536Z,98996.67
2023-03-24T12:42:46.648Z,98992.55
2023-03-24T12:45:37.186Z,98988.09
2023-03-24T12:48:08.488Z,98984.19
2023-03-24T12:50:58.049Z,98982.58
2023-03-24T12:53:26.722Z,98981.86
2023-03-24T12:56:02.168Z,98977.28
2023-03-24T12:58:53.560Z,98974.52
2023-03-24T13:01:21.914Z,98977.71
2023-03-24T13:03:54.298Z,98976.48
2023-03-24T13:06:54.673Z,98971.63
2023-03-24T13:09:41.786Z,98962.77
2023-03-24T13:12:15.670Z,98957.59
2023-03-24T13:15:06.227Z,98964.35
2023-03-24T13:17:55.815Z,98965.80
2023-03-24T13:20:35.359Z,98954.00
2023-03-24T13:23:22.578Z,98956.14
2023-03-24T13:26:00.947Z,98958.71
2023-03-24T13:28:31.891Z,98954.80
2023-03-24T13:31:03.217Z,98954.55
2023-03-24T13:33:32.476Z,98955.73
2023-03-24T13:36:26.504Z,98959.69
2023-03-24T13:38:58.184Z,98953.16
2023-03-24T13:41:27.585Z,98956.86
2023-03-24T13:44:05.987Z,98962.39
2023-03-24T13:46:39.038Z,98960.21
2023-03-24T13:49:12.084Z,98962.05
2023-03-24T13:51:43.918Z,98963.92
2023-03-24T13:54:15.877Z,98955.48
2023-03-24T13:57:04.789Z,98957.43
2023-03-24T13:59:57.951Z,98954.84
2023-03-24T14:02:30.199Z,98952.38
2023-03-24T14:04:58.632Z,98949.52
2023-03-24T14:07:37.116Z,98942.85
2023-03-24T14:10:14.668Z,98941.98
2023-03-24T14:12:52.305Z,98947.74
2023-03-24T14:15:22.374Z,98943.98
2023-03-24T14:17:55.332Z,98943.36
2023-03-24T14:20:29.138Z,98947.49
2023-03-24T14:22:58.060Z,98946.27
2023-03-24T14:25:31.088Z,98943.94
2023-03-24T14:28:25.986Z,98946.30
2023-03-24T14:31:00.315Z,98941.03
2023-03-24T14:33:29.681Z,98935.87
2023-03-24T14:36:01.858Z,98937.30
2023-03-24T14:38:33.562Z,98934.91
2023-03-24T14:41:06.812Z,98938.44
2023-03-24T14:43:41.644Z,98935.73
2023-03-24T14:46:34.862Z,98931.44
2023-03-24T14:49:26.022Z,98928.14
2023-03-24T14:52:12.871Z,98930.28
2023-03-24T14:54:45.889Z,98926.27
2023-03-24T14:57:20.283Z,98925.04
2023-03-24T15:00:08.732Z,98925.64
2023-03-24T15:02:42.181Z,98924.70
2023-03-24T15:05:24.989Z,98922.66
2023-03-24T15:08:21.856Z,98927.80
2023-03-24T15:10:50.471Z,98923.14
2023-03-24T15:13:36.783Z,98927.98
2023-03-24T15:16:07.614Z,98926.05
2023-03-24T15:19:02.637Z,98925.34
2023-03-24T15:21:36.961Z,98928.30
2023-03-24T15:24:38.237Z,98926.61
2023-03-24T15:27:09.070Z,98927.11
2023-03-24T15:29:42.821Z,98930.70
2023-03-24T15:32:17.430Z,98925.36
2023-03-24T15:34:53.870Z,98933.05
2023-03-24T15:37:31.181Z,98932.67
2023-03-24T15:40:14.743Z,98933.70
2023-03-24T15:42:46.378Z,98931.91
2023-03-24T15:45:22.643Z,98930.84
2023-03-24T15:47:51.831Z,98930.61
2023-03-24T15:50:31.536Z,98929.77
2023-03-24T15:53:25.182Z,98930.36
2023-03-24T15:56:19.110Z,98930.41
2023-03-24T15:58:57.650Z,98935.95
2023-03-24T16:01:32.534Z,98933.67
2023-03-24T16:04:01.258Z,98938.74
2023-03-24T16:06:36.144Z,98938.69
2023-03-24T16:09:10.768Z,98936.67
2023-03-24T16:11:42.764Z,98938.00
2023-03-24T16:14:20.885Z,98937.90
2023-03-24T16:16:54.399Z,98937.61
2023-03-24T16:19:23.344Z,98938.66
2023-03-24T16:21:51.597Z,98941.33
2023-03-24T16:24:20.329Z,98946.60
2023-03-24T16:26:50.129Z,98948.45
2023-03-24T16:29:27.345Z,98945.48
2023-03-24T16:31:56.661Z,98944.96
2023-03-24T16:34:24.821Z,98944.95
2023-03-24T16:36:54.421Z,98944.41
2023-03-24T16:39:25.653Z,98941.33
2023-03-24T16:41:54.311Z,98941.21
2023-03-24T16:44:24.186Z,98939.73
2023-03-24T16:46:54.182Z,98938.89
2023-03-24T16:49:23.082Z,98943.73
2023-03-24T16:51:53.264Z,98941.58
2023-03-24T16:54:25.437Z,98939.45
2023-03-24T16:56:54.573Z,98939.60
2023-03-24T16:59:22.904Z,98944.73
2023-03-24T17:01:57.261Z,98944.25
2023-03-24T17:04:27.486Z,98944.87
2023-03-24T17:06:57.824Z,98949.55
2023-03-24T17:09:28.618Z,98948.86
2023-03-24T17:11:57.513Z,98947.52
2023-03-24T17:14:32.885Z,98944.39
2023-03-24T17:17:04.590Z,98942.61
2023-03-24T17:19:33.171Z,98947.75
2023-03-24T17:22:06.666Z,98949.11
2023-03-24T17:24:38.150Z,98956.66
2023-03-24T17:27:15.820Z,98961.86
2023-03-24T17:29:46.367Z,98961.99
2023-03-24T17:32:14.604Z,98970.83
2023-03-24T17:34:45.556Z,98970.98
2023-03-24T17:37:15.831Z,98972.52
2023-03-24T17:39:44.319Z,98972.80
2023-03-24T17:42:14.762Z,98967.14
2023-03-24T17:44:44.059Z,98963.85
2023-03-24T17:47:12.436Z,98958.23
2023-03-24T17:50:00.470Z,98956.14
2023-03-24T17:52:40.672Z,98957.79
2023-03-24T17:55:10.127Z,98962.45
2023-03-24T17:57:38.354Z,98972.82
2023-03-24T18:00:10.267Z,98986.49
2023-03-24T18:02:39.858Z,98991.84
2023-03-24T18:05:08.325Z,98990.80
2023-03-24T18:07:36.482Z,98991.50
2023-03-24T18:10:05.151Z,98991.92
2023-03-24T18:12:38.610Z,98995.58
2023-03-24T18:15:07.681Z,98993.42
2023-03-24T18:17:36.430Z,98994.18
2023-03-24T18:20:12.492Z,98994.88
2023-03-24T18:22:41.527Z,98992.54
2023-03-24T18:25:12.711Z,98996.35
2023-03-24T18:27:45.697Z,99002.38
2023-03-24T18:30:14.770Z,99001.02
2023-03-24T18:32:43.332Z,98999.58
2023-03-24T18:35:16.652Z,99001.10
2023-03-24T18:37:45.043Z,99002.98
2023-03-24T18:40:16.726Z,99001.70
2023-03-24T18:42:45.316Z,98998.33
2023-03-24T18:45:17.536Z,98994.58
2023-03-24T18:47:46.760Z,98996.21
2023-03-24T18:50:17.143Z,98996.85
2023-03-24T18:52:50.040Z,98994.21
2023-03-24T18:55:19.702Z,98992.19
2023-03-24T18:57:48.168Z,98988.66
2023-03-24T19:00:16.729Z,98991.59
2023-03-24T19:02:45.569Z,98985.63
2023-03-24T19:05:15.420Z,98984.80
2023-03-24T19:07:49.575Z,98985.24
2023-03-24T19:10:18.068Z,98983.36
2023-03-24T19:12:50.888Z,98981.61
2023-03-24T19:15:20.777Z,98980.10
2023-03-24T19:17:50.853Z,98970.79
2023-03-24T19:20:19.165Z,98966.79
2023-03-24T19:22:48.204Z,98963.69
2023-03-24T19:25:16.741Z,98957.61
2023-03-24T19:27:48.207Z,98956.14
2023-03-24T19:30:18.343Z,98950.52
2023-03-24T19:32:48.075Z,98943.20
2023-03-24T19:35:21.626Z,98941.86
2023-03-24T19:37:50.846Z,98936.23
2023-03-24T19:40:23.278Z,98936.84
2023-03-24T19:42:52.358Z,98933.63
2023-03-24T19:45:20.624Z,98932.70
2023-03-24T19:47:49.415Z,98932.89
2023-03-24T19:50:18.696Z,98926.89
2023-03-24T19:52:51.296Z,98927.73
2023-03-24T19:55:19.722Z,98926.70
2023-03-24T19:57:48.001Z,98923.39
2023-03-24T20:00:16.810Z,98918.80
2023-03-24T20:02:46.329Z,98922.61
2023-03-24T20:05:15.289Z,98921.60
2023-03-24T20:07:43.791Z,98921.31
2023-03-24T20:10:12.162Z,98916.30
2023-03-24T20:12:41.320Z,98913.45
2023-03-24T20:15:10.071Z,98905.77
2023-03-24T20:17:39.672Z,98906.16
2023-03-24T20:20:10.370Z,98906.73
2023-03-24T20:22:46.999Z,98901.02
2023-03-24T20:25:16.698Z,98894.15
2023-03-24T20:27:45.497Z,98893.05
2023-03-24T20:30:15.387Z,98893.73
2023-03-24T20:32:45.486Z,98892.81
2023-03-24T20:35:14.464Z,98889.48
2023-03-24T20:37:42.691Z,98886.66
2023-03-24T20:40:14.884Z,98883.29
2023-03-24T20:42:44.048Z,98879.16
2023-03-24T20:45:12.304Z,98872.41
2023-03-24T20:47:44.477Z,98867.27
2023-03-24T20:50:12.914Z,98867.39
2023-03-24T20:52:47.399Z,98867.33
2023-03-24T20:55:36.136Z,98863.98
2023-03-24T20:58:10.696Z,98866.16
2023-03-24T21:00:46.198Z,98864.63
2023-03-24T21:03:15.114Z,98861.13
2023-03-24T21:05:43.340Z,98857.13
2023-03-24T21:08:11.536Z,98859.46
2023-03-24T21:10:56.839Z,98858.39
2023-03-24T21:15:57.035Z,98856.98
2023-03-24T21:18:26.541Z,98848.56
2023-03-24T21:20:55.515Z,98848.04
2023-03-24T21:23:24.378Z,98842.59
2023-03-24T21:25:56.469Z,98841.52
2023-03-24T21:28:28.255Z,98838.17
2023-03-24T21:31:05.040Z,98840.07
2023-03-24T21:33:34.066Z,98843.09
2023-03-24T21:36:02.307Z,98834.36
2023-03-24T21:38:33.038Z,98837.98
2023-03-24T21:41:02.247Z,98825.34
2023-03-24T21:43:30.936Z,98822.26
2023-03-24T21:45:59.513Z,98815.61
2023-03-24T21:48:28.270Z,98812.67
2023-03-24T21:50:57.500Z,98816.18
2023-03-24T21:53:26.218Z,98818.91
2023-03-24T21:56:04.607Z,98815.98
2023-03-24T21:58:33.578Z,98821.65
2023-03-24T22:01:04.768Z,98820.03
2023-03-24T22:03:34.740Z,98822.25
2023-03-24T22:06:04.149Z,98814.27
2023-03-24T22:08:35.483Z,98800.16
2023-03-24T22:11:04.476Z,98799.79
2023-03-24T22:13:34.999Z,98800.68
2023-03-24T22:16:05.644Z,98802.33
2023-03-24T22:18:34.137Z,98808.19
2023-03-24T22:21:12.937Z,98809.00
2023-03-24T22:23:42.813Z,98808.72
2023-03-24T22:26:13.775Z,98808.53
2023-03-24T22:28:42.581Z,98807.97
2023-03-24T22:31:16.226Z,98806.66
2023-03-24T22:33:44.696Z,98807.15
2023-03-24T22:36:14.605Z,98805.92
2023-03-24T22:38:43.635Z,98799.27
2023-03-24T22:41:12.188Z,98796.66
2023-03-24T22:43:42.272Z,98796.22
2023-03-24T22:46:10.744Z,98794.31
2023-03-24T22:48:40.517Z,98792.61
2023-03-24T22:51:09.232Z,98791.00
2023-03-24T22:53:40.276Z,98789.80
2023-03-24T22:56:09.859Z,98786.38
2023-03-24T22:58:40.240Z,98785.41
2023-03-24T23:01:10.553Z,98782.95
2023-03-24T23:03:39.172Z,98779.21
2023-03-24T23:06:15.852Z,98778.35
2023-03-24T23:08:44.845Z,98773.40
2023-03-24T23:11:13.306Z,98768.94
2023-03-24T23:14:06.556Z,98756.99
2023-03-24T23:16:39.951Z,98764.92
2023-03-24T23:19:09.653Z,98763.02
2023-03-24T23:23:21.796Z,98770.42
2023-03-24T23:25:51.727Z,98768.99
2023-03-24T23:28:20.026Z,98762.63
2023-03-24T23:30:48.262Z,98759.85
2023-03-24T23:33:17.260Z,98759.11
2023-03-24T23:35:45.915Z,98753.87
2023-03-24T23:38:14.835Z,98748.16
2023-03-24T23:40:44.062Z,98753.14
2023-03-24T23:43:12.804Z,98754.48
2023-03-24T23:45:41.882Z,98749.30
2023-03-24T23:48:10.550Z,98750.75
2023-03-24T23:50:41.575Z,98750.67
2023-03-24T23:53:29.689Z,98752.79
2023-03-24T23:56:08.602Z,98761.86
2023-03-24T23:58:39.013Z,98763.83
